sensor_id;sensor_type;location;lat;lon;timestamp;temperature;humidity
19403;DHT22;9837;48.888;8.998;2022-10-15T05:45:45;20.40;73.00
19403;DHT22;9837;48.888;8.998;2022-10-15T05:48:11;20.40;72.70
19403;DHT22;9837;48.888;8.998;2022-10-15T05:50:36;20.50;72.40
19403;DHT22;9837;48.888;8.998;2022-10-15T05:53:02;20.50;72.30
19403;DHT22;9837;48.888;8.998;2022-10-15T05:55:27;20.50;72.40
19403;DHT22;9837;48.888;8.998;2022-10-15T05:57:54;20.50;72.30
19403;DHT22;9837;48.888;8.998;2022-10-15T06:02:46;20.50;72.40
19403;DHT22;9837;48.888;8.998;2022-10-15T06:05:12;20.50;72.20
19403;DHT22;9837;48.888;8.998;2022-10-15T06:07:37;20.50;72.90
19403;DHT22;9837;48.888;8.998;2022-10-15T06:10:04;20.60;71.90
19403;DHT22;9837;48.888;8.998;2022-10-15T06:12:29;20.60;71.80
19403;DHT22;9837;48.888;8.998;2022-10-15T06:14:55;20.60;71.80
19403;DHT22;9837;48.888;8.998;2022-10-15T06:17:21;20.60;71.80
19403;DHT22;9837;48.888;8.998;2022-10-15T06:19:46;20.60;71.80
19403;DHT22;9837;48.888;8.998;2022-10-15T06:22:12;20.60;71.80
19403;DHT22;9837;48.888;8.998;2022-10-15T06:24:37;20.60;71.80
19403;DHT22;9837;48.888;8.998;2022-10-15T06:27:03;20.60;71.90
19403;DHT22;9837;48.888;8.998;2022-10-15T06:29:29;20.60;71.90
19403;DHT22;9837;48.888;8.998;2022-10-15T06:31:54;20.60;71.90
19403;DHT22;9837;48.888;8.998;2022-10-15T06:34:20;20.60;71.80
19403;DHT22;9837;48.888;8.998;2022-10-15T06:36:45;20.60;71.80
19403;DHT22;9837;48.888;8.998;2022-10-15T06:39:11;20.60;71.80
19403;DHT22;9837;48.888;8.998;2022-10-15T06:41:36;20.70;71.90
19403;DHT22;9837;48.888;8.998;2022-10-15T06:44:02;20.70;71.80
19403;DHT22;9837;48.888;8.998;2022-10-15T06:46:28;20.70;71.80
19403;DHT22;9837;48.888;8.998;2022-10-15T06:48:53;20.80;71.70
19403;DHT22;9837;48.888;8.998;2022-10-15T06:51:20;20.80;71.60
19403;DHT22;9837;48.888;8.998;2022-10-15T06:53:45;20.80;71.60
19403;DHT22;9837;48.888;8.998;2022-10-15T06:56:11;20.80;71.60
19403;DHT22;9837;48.888;8.998;2022-10-15T06:58:36;20.80;72.30
19403;DHT22;9837;48.888;8.998;2022-10-15T07:01:04;20.80;71.70
19403;DHT22;9837;48.888;8.998;2022-10-15T07:03:30;20.80;71.60
19403;DHT22;9837;48.888;8.998;2022-10-15T07:06:00;20.90;71.70
19403;DHT22;9837;48.888;8.998;2022-10-15T07:08:25;20.90;71.60
19403;DHT22;9837;48.888;8.998;2022-10-15T07:10:51;20.90;71.50
19403;DHT22;9837;48.888;8.998;2022-10-15T07:13:16;20.90;71.50
19403;DHT22;9837;48.888;8.998;2022-10-15T07:15:42;21.00;71.70
19403;DHT22;9837;48.888;8.998;2022-10-15T07:18:09;21.00;71.70
19403;DHT22;9837;48.888;8.998;2022-10-15T07:20:34;21.00;72.40
19403;DHT22;9837;48.888;8.998;2022-10-15T07:23:00;21.00;71.90
19403;DHT22;9837;48.888;8.998;2022-10-15T07:25:27;21.10;71.90
19403;DHT22;9837;48.888;8.998;2022-10-15T07:27:53;21.10;71.90
19403;DHT22;9837;48.888;8.998;2022-10-15T07:30:20;21.20;71.90
19403;DHT22;9837;48.888;8.998;2022-10-15T07:32:46;21.30;71.70
19403;DHT22;9837;48.888;8.998;2022-10-15T07:35:12;21.40;71.40
19403;DHT22;9837;48.888;8.998;2022-10-15T07:37:38;21.40;71.00
19403;DHT22;9837;48.888;8.998;2022-10-15T07:40:04;21.30;70.40
19403;DHT22;9837;48.888;8.998;2022-10-15T07:44:55;21.10;70.60
19403;DHT22;9837;48.888;8.998;2022-10-15T07:47:21;21.20;70.30
19403;DHT22;9837;48.888;8.998;2022-10-15T07:49:47;21.20;70.60
19403;DHT22;9837;48.888;8.998;2022-10-15T07:52:12;21.10;70.30
19403;DHT22;9837;48.888;8.998;2022-10-15T07:57:04;21.10;70.30
19403;DHT22;9837;48.888;8.998;2022-10-15T07:59:32;21.20;71.10
19403;DHT22;9837;48.888;8.998;2022-10-15T08:01:58;21.20;69.90
19403;DHT22;9837;48.888;8.998;2022-10-15T08:04:23;21.10;69.90
19403;DHT22;9837;48.888;8.998;2022-10-15T08:06:49;21.10;70.00
19403;DHT22;9837;48.888;8.998;2022-10-15T08:09:15;21.20;69.80
19403;DHT22;9837;48.888;8.998;2022-10-15T08:11:40;21.20;69.80
19403;DHT22;9837;48.888;8.998;2022-10-15T08:14:06;21.10;69.10
19403;DHT22;9837;48.888;8.998;2022-10-15T08:16:31;21.10;69.60
19403;DHT22;9837;48.888;8.998;2022-10-15T08:18:58;21.10;69.60
19403;DHT22;9837;48.888;8.998;2022-10-15T08:21:24;21.20;69.70
19403;DHT22;9837;48.888;8.998;2022-10-15T08:23:50;21.10;69.50
19403;DHT22;9837;48.888;8.998;2022-10-15T08:26:17;21.20;69.90
19403;DHT22;9837;48.888;8.998;2022-10-15T08:28:42;21.20;70.00
19403;DHT22;9837;48.888;8.998;2022-10-15T08:33:36;21.20;70.00
19403;DHT22;9837;48.888;8.998;2022-10-15T08:36:04;21.20;70.60
19403;DHT22;9837;48.888;8.998;2022-10-15T08:38:30;21.20;70.40
19403;DHT22;9837;48.888;8.998;2022-10-15T08:40:58;21.20;69.20
19403;DHT22;9837;48.888;8.998;2022-10-15T08:43:44;21.20;69.50
19403;DHT22;9837;48.888;8.998;2022-10-15T08:46:15;21.30;69.30
19403;DHT22;9837;48.888;8.998;2022-10-15T08:49:03;21.30;68.70
19403;DHT22;9837;48.888;8.998;2022-10-15T08:51:50;21.10;68.80
19403;DHT22;9837;48.888;8.998;2022-10-15T08:56:49;21.00;69.40
19403;DHT22;9837;48.888;8.998;2022-10-15T08:59:43;21.10;69.70
19403;DHT22;9837;48.888;8.998;2022-10-15T09:02:22;21.10;69.90
19403;DHT22;9837;48.888;8.998;2022-10-15T09:07:44;21.20;69.60
19403;DHT22;9837;48.888;8.998;2022-10-15T09:10:30;21.10;69.30
19403;DHT22;9837;48.888;8.998;2022-10-15T09:13:12;21.00;70.20
19403;DHT22;9837;48.888;8.998;2022-10-15T09:16:00;21.10;70.50
19403;DHT22;9837;48.888;8.998;2022-10-15T09:18:30;21.30;70.10
19403;DHT22;9837;48.888;8.998;2022-10-15T09:20:57;21.50;70.20
19403;DHT22;9837;48.888;8.998;2022-10-15T09:23:27;21.70;69.50
19403;DHT22;9837;48.888;8.998;2022-10-15T09:26:21;22.00;69.30
19403;DHT22;9837;48.888;8.998;2022-10-15T09:29:12;22.00;68.60
19403;DHT22;9837;48.888;8.998;2022-10-15T09:31:50;22.00;68.10
19403;DHT22;9837;48.888;8.998;2022-10-15T09:34:34;21.80;68.10
19403;DHT22;9837;48.888;8.998;2022-10-15T09:37:08;21.90;68.80
19403;DHT22;9837;48.888;8.998;2022-10-15T09:39:46;22.00;68.90
19403;DHT22;9837;48.888;8.998;2022-10-15T09:44:48;22.10;67.80
19403;DHT22;9837;48.888;8.998;2022-10-15T09:47:26;22.10;67.70
19403;DHT22;9837;48.888;8.998;2022-10-15T09:49:52;22.20;67.90
19403;DHT22;9837;48.888;8.998;2022-10-15T09:55:34;22.30;68.50
19403;DHT22;9837;48.888;8.998;2022-10-15T09:58:11;22.40;68.70
19403;DHT22;9837;48.888;8.998;2022-10-15T10:01:03;22.50;68.60
19403;DHT22;9837;48.888;8.998;2022-10-15T10:03:35;22.60;68.80
19403;DHT22;9837;48.888;8.998;2022-10-15T10:06:04;22.80;68.90
19403;DHT22;9837;48.888;8.998;2022-10-15T10:08:52;23.10;67.40
19403;DHT22;9837;48.888;8.998;2022-10-15T10:11:20;23.20;67.10
19403;DHT22;9837;48.888;8.998;2022-10-15T10:13:53;23.30;66.90
19403;DHT22;9837;48.888;8.998;2022-10-15T10:16:20;23.40;65.30
19403;DHT22;9837;48.888;8.998;2022-10-15T10:19:02;23.30;66.10
19403;DHT22;9837;48.888;8.998;2022-10-15T10:21:33;23.50;65.80
19403;DHT22;9837;48.888;8.998;2022-10-15T10:26:46;23.50;65.30
19403;DHT22;9837;48.888;8.998;2022-10-15T10:29:18;23.60;65.60
19403;DHT22;9837;48.888;8.998;2022-10-15T10:31:44;23.70;64.90
19403;DHT22;9837;48.888;8.998;2022-10-15T10:34:26;23.80;64.40
19403;DHT22;9837;48.888;8.998;2022-10-15T10:36:52;23.80;63.90
19403;DHT22;9837;48.888;8.998;2022-10-15T10:39:31;23.80;63.80
19403;DHT22;9837;48.888;8.998;2022-10-15T10:41:59;23.80;64.40
19403;DHT22;9837;48.888;8.998;2022-10-15T10:44:29;23.70;62.10
19403;DHT22;9837;48.888;8.998;2022-10-15T10:49:34;23.60;62.60
19403;DHT22;9837;48.888;8.998;2022-10-15T10:52:02;23.60;64.20
19403;DHT22;9837;48.888;8.998;2022-10-15T10:54:28;23.60;61.40
19403;DHT22;9837;48.888;8.998;2022-10-15T10:56:56;23.60;61.20
19403;DHT22;9837;48.888;8.998;2022-10-15T10:59:31;23.50;61.30
19403;DHT22;9837;48.888;8.998;2022-10-15T11:01:59;23.50;60.30
19403;DHT22;9837;48.888;8.998;2022-10-15T11:04:28;23.50;60.70
19403;DHT22;9837;48.888;8.998;2022-10-15T11:07:08;23.60;60.20
19403;DHT22;9837;48.888;8.998;2022-10-15T11:18:02;23.60;60.00
19403;DHT22;9837;48.888;8.998;2022-10-15T11:28:27;23.70;58.80
19403;DHT22;9837;48.888;8.998;2022-10-15T11:31:09;23.60;58.40
19403;DHT22;9837;48.888;8.998;2022-10-15T11:36:33;23.60;57.90
19403;DHT22;9837;48.888;8.998;2022-10-15T11:42:27;23.70;57.60
19403;DHT22;9837;48.888;8.998;2022-10-15T11:55:11;23.30;58.30
19403;DHT22;9837;48.888;8.998;2022-10-15T11:57:51;23.30;58.40
19403;DHT22;9837;48.888;8.998;2022-10-15T12:07:42;23.20;58.40
19403;DHT22;9837;48.888;8.998;2022-10-15T12:25:05;22.60;60.00
19403;DHT22;9837;48.888;8.998;2022-10-15T12:31:22;22.50;61.30
19403;DHT22;9837;48.888;8.998;2022-10-15T12:35:03;22.40;62.20
19403;DHT22;9837;48.888;8.998;2022-10-15T12:38:20;22.30;62.00
19403;DHT22;9837;48.888;8.998;2022-10-15T12:41:44;22.30;62.50
19403;DHT22;9837;48.888;8.998;2022-10-15T12:44:29;22.40;62.40
19403;DHT22;9837;48.888;8.998;2022-10-15T12:46:59;22.60;62.20
19403;DHT22;9837;48.888;8.998;2022-10-15T12:49:55;22.60;61.40
19403;DHT22;9837;48.888;8.998;2022-10-15T12:55:38;22.40;61.70
19403;DHT22;9837;48.888;8.998;2022-10-15T12:58:57;22.50;61.70
19403;DHT22;9837;48.888;8.998;2022-10-15T13:05:02;22.60;61.70
19403;DHT22;9837;48.888;8.998;2022-10-15T13:07:54;22.60;61.60
19403;DHT22;9837;48.888;8.998;2022-10-15T13:13:23;22.70;61.60
19403;DHT22;9837;48.888;8.998;2022-10-15T13:16:05;22.60;60.90
19403;DHT22;9837;48.888;8.998;2022-10-15T13:19:00;22.50;61.10
19403;DHT22;9837;48.888;8.998;2022-10-15T13:24:44;22.60;61.60
19403;DHT22;9837;48.888;8.998;2022-10-15T13:27:21;22.70;61.70
19403;DHT22;9837;48.888;8.998;2022-10-15T13:30:05;22.70;63.00
19403;DHT22;9837;48.888;8.998;2022-10-15T13:32:51;22.40;61.00
19403;DHT22;9837;48.888;8.998;2022-10-15T13:35:37;22.40;61.30
19403;DHT22;9837;48.888;8.998;2022-10-15T13:38:12;22.50;62.20
19403;DHT22;9837;48.888;8.998;2022-10-15T13:40:52;22.50;60.90
19403;DHT22;9837;48.888;8.998;2022-10-15T13:43:21;22.40;61.40
19403;DHT22;9837;48.888;8.998;2022-10-15T13:45:58;22.50;61.20
19403;DHT22;9837;48.888;8.998;2022-10-15T13:48:31;22.40;61.50
19403;DHT22;9837;48.888;8.998;2022-10-15T13:51:08;22.50;62.50
19403;DHT22;9837;48.888;8.998;2022-10-15T13:53:41;22.40;61.90
19403;DHT22;9837;48.888;8.998;2022-10-15T13:56:54;22.50;62.40
19403;DHT22;9837;48.888;8.998;2022-10-15T13:59:43;22.60;62.20
19403;DHT22;9837;48.888;8.998;2022-10-15T14:02:23;22.60;62.00
19403;DHT22;9837;48.888;8.998;2022-10-15T14:05:28;22.50;62.10
19403;DHT22;9837;48.888;8.998;2022-10-15T14:11:14;22.30;62.70
19403;DHT22;9837;48.888;8.998;2022-10-15T14:13:52;22.40;62.80
19403;DHT22;9837;48.888;8.998;2022-10-15T14:16:46;22.40;63.20
19403;DHT22;9837;48.888;8.998;2022-10-15T14:28:54;22.20;64.40
19403;DHT22;9837;48.888;8.998;2022-10-15T14:31:55;22.00;64.40
19403;DHT22;9837;48.888;8.998;2022-10-15T14:34:43;21.80;65.40
19403;DHT22;9837;48.888;8.998;2022-10-15T14:45:26;22.00;66.50
19403;DHT22;9837;48.888;8.998;2022-10-15T14:48:55;22.20;66.30
19403;DHT22;9837;48.888;8.998;2022-10-15T15:01:57;22.00;64.90
19403;DHT22;9837;48.888;8.998;2022-10-15T15:04:42;21.70;65.20
19403;DHT22;9837;48.888;8.998;2022-10-15T15:11:05;21.40;67.10
19403;DHT22;9837;48.888;8.998;2022-10-15T15:13:45;21.60;67.00
19403;DHT22;9837;48.888;8.998;2022-10-15T15:16:44;22.00;65.90
19403;DHT22;9837;48.888;8.998;2022-10-15T15:31:33;22.40;63.30
19403;DHT22;9837;48.888;8.998;2022-10-15T15:36:57;22.50;63.10
19403;DHT22;9837;48.888;8.998;2022-10-15T15:39:51;22.50;64.60
19403;DHT22;9837;48.888;8.998;2022-10-15T15:45:50;25.00;64.30
19403;DHT22;9837;48.888;8.998;2022-10-15T16:11:01;22.20;62.60
19403;DHT22;9837;48.888;8.998;2022-10-15T16:33:16;21.70;63.60
19403;DHT22;9837;48.888;8.998;2022-10-15T16:40:37;21.50;64.30
19403;DHT22;9837;48.888;8.998;2022-10-15T16:55:18;21.30;64.60
19403;DHT22;9837;48.888;8.998;2022-10-15T17:00:18;21.30;65.30
19403;DHT22;9837;48.888;8.998;2022-10-15T17:10:04;21.40;64.30
19403;DHT22;9837;48.888;8.998;2022-10-15T17:17:37;21.50;64.70
19403;DHT22;9837;48.888;8.998;2022-10-15T17:45:10;20.90;66.30
19403;DHT22;9837;48.888;8.998;2022-10-15T17:47:39;20.80;67.60
19403;DHT22;9837;48.888;8.998;2022-10-15T17:50:05;20.40;68.30
19403;DHT22;9837;48.888;8.998;2022-10-15T17:52:31;20.50;68.30
19403;DHT22;9837;48.888;8.998;2022-10-15T17:54:57;20.60;68.10
19403;DHT22;9837;48.888;8.998;2022-10-15T17:57:23;20.80;67.30
19403;DHT22;9837;48.888;8.998;2022-10-15T17:59:48;20.80;66.90
19403;DHT22;9837;48.888;8.998;2022-10-15T18:02:14;20.70;67.20
19403;DHT22;9837;48.888;8.998;2022-10-15T18:04:40;20.80;67.40
19403;DHT22;9837;48.888;8.998;2022-10-15T18:07:06;20.80;68.10
19403;DHT22;9837;48.888;8.998;2022-10-15T18:11:59;20.70;67.70
19403;DHT22;9837;48.888;8.998;2022-10-15T18:14:25;20.90;67.00
19403;DHT22;9837;48.888;8.998;2022-10-15T18:16:51;21.00;66.50
19403;DHT22;9837;48.888;8.998;2022-10-15T18:19:17;21.00;66.30
19403;DHT22;9837;48.888;8.998;2022-10-15T18:21:43;21.00;66.70
19403;DHT22;9837;48.888;8.998;2022-10-15T18:24:09;21.00;66.50
19403;DHT22;9837;48.888;8.998;2022-10-15T18:26:34;21.00;66.40
19403;DHT22;9837;48.888;8.998;2022-10-15T18:31:26;21.00;66.40
19403;DHT22;9837;48.888;8.998;2022-10-15T18:33:53;21.00;66.70
19403;DHT22;9837;48.888;8.998;2022-10-15T18:36:23;20.90;66.70
19403;DHT22;9837;48.888;8.998;2022-10-15T18:38:49;20.70;67.30
19403;DHT22;9837;48.888;8.998;2022-10-15T18:43:42;20.70;67.90
19403;DHT22;9837;48.888;8.998;2022-10-15T18:48:36;20.60;68.30
19403;DHT22;9837;48.888;8.998;2022-10-15T18:51:06;20.60;68.30
19403;DHT22;9837;48.888;8.998;2022-10-15T18:53:34;20.30;68.70
19403;DHT22;9837;48.888;8.998;2022-10-15T18:58:26;20.20;69.90
19403;DHT22;9837;48.888;8.998;2022-10-15T19:00:52;20.40;68.80
19403;DHT22;9837;48.888;8.998;2022-10-15T19:05:44;20.60;68.30
19403;DHT22;9837;48.888;8.998;2022-10-15T19:08:13;20.80;67.60
19403;DHT22;9837;48.888;8.998;2022-10-15T19:10:38;20.90;67.20
19403;DHT22;9837;48.888;8.998;2022-10-15T19:13:04;20.90;68.00
19403;DHT22;9837;48.888;8.998;2022-10-15T19:17:56;20.90;67.10
19403;DHT22;9837;48.888;8.998;2022-10-15T19:20:21;20.80;67.20
19403;DHT22;9837;48.888;8.998;2022-10-15T19:27:40;20.50;68.40
19403;DHT22;9837;48.888;8.998;2022-10-15T19:32:33;20.60;68.50
19403;DHT22;9837;48.888;8.998;2022-10-15T19:34:58;20.60;69.20
19403;DHT22;9837;48.888;8.998;2022-10-15T19:37:24;20.70;68.10
19403;DHT22;9837;48.888;8.998;2022-10-15T19:39:50;20.80;67.70
19403;DHT22;9837;48.888;8.998;2022-10-15T19:42:15;20.90;67.20
19403;DHT22;9837;48.888;8.998;2022-10-15T19:44:41;20.90;68.00
19403;DHT22;9837;48.888;8.998;2022-10-15T19:47:07;21.10;66.70
19403;DHT22;9837;48.888;8.998;2022-10-15T19:54:28;21.30;65.90
19403;DHT22;9837;48.888;8.998;2022-10-15T19:56:54;21.20;65.90
19403;DHT22;9837;48.888;8.998;2022-10-15T20:01:45;21.00;66.60
19403;DHT22;9837;48.888;8.998;2022-10-15T20:04:11;21.10;66.40
19403;DHT22;9837;48.888;8.998;2022-10-15T20:06:37;21.20;66.00
19403;DHT22;9837;48.888;8.998;2022-10-15T20:09:04;21.20;66.10
19403;DHT22;9837;48.888;8.998;2022-10-15T20:14:00;21.00;66.60
19403;DHT22;9837;48.888;8.998;2022-10-15T20:18:52;20.90;67.10
19403;DHT22;9837;48.888;8.998;2022-10-15T20:23:44;20.60;68.40
19403;DHT22;9837;48.888;8.998;2022-10-15T20:26:14;20.50;69.10
19403;DHT22;9837;48.888;8.998;2022-10-15T20:28:42;20.60;68.80
19403;DHT22;9837;48.888;8.998;2022-10-15T20:31:13;20.70;68.60
19403;DHT22;9837;48.888;8.998;2022-10-15T20:33:41;20.70;68.30
19403;DHT22;9837;48.888;8.998;2022-10-15T20:36:09;20.80;68.30
19403;DHT22;9837;48.888;8.998;2022-10-15T20:38:35;20.80;69.00
19403;DHT22;9837;48.888;8.998;2022-10-15T20:41:10;20.90;68.70
19403;DHT22;9837;48.888;8.998;2022-10-15T20:46:04;21.00;67.60
19403;DHT22;9837;48.888;8.998;2022-10-15T20:48:31;21.00;67.40
19403;DHT22;9837;48.888;8.998;2022-10-15T20:50:58;20.90;67.40
19403;DHT22;9837;48.888;8.998;2022-10-15T21:00:43;20.60;69.00
19403;DHT22;9837;48.888;8.998;2022-10-15T21:03:08;20.80;68.40
19403;DHT22;9837;48.888;8.998;2022-10-15T21:05:34;20.70;68.20
19403;DHT22;9837;48.888;8.998;2022-10-15T21:10:25;20.70;68.20
19403;DHT22;9837;48.888;8.998;2022-10-15T21:12:51;20.90;67.50
19403;DHT22;9837;48.888;8.998;2022-10-15T21:15:17;20.90;67.60
19403;DHT22;9837;48.888;8.998;2022-10-15T21:20:09;20.60;68.60
19403;DHT22;9837;48.888;8.998;2022-10-15T21:22:34;20.50;69.30
19403;DHT22;9837;48.888;8.998;2022-10-15T21:25:00;20.70;68.70
19403;DHT22;9837;48.888;8.998;2022-10-15T21:29:52;21.20;67.10
19403;DHT22;9837;48.888;8.998;2022-10-15T21:32:17;21.20;66.80
19403;DHT22;9837;48.888;8.998;2022-10-15T21:34:43;21.00;67.30
19403;DHT22;9837;48.888;8.998;2022-10-15T21:37:09;21.00;67.30
19403;DHT22;9837;48.888;8.998;2022-10-15T21:42:01;21.00;67.20
19403;DHT22;9837;48.888;8.998;2022-10-15T21:44:27;21.10;67.20
19403;DHT22;9837;48.888;8.998;2022-10-15T21:46:52;21.20;66.90
19403;DHT22;9837;48.888;8.998;2022-10-15T21:49:18;21.10;67.00
19403;DHT22;9837;48.888;8.998;2022-10-15T21:51:44;21.10;67.40
19403;DHT22;9837;48.888;8.998;2022-10-15T21:54:09;21.00;67.50
